sensor_id;sensor_type;location;lat;lon;timestamp;pressure;altitude;pressure_sealevel;temperature;humidity
11053;BME280;55230;42.602;23.470;2023-03-26T00:01:08;92858.34;;;7.82;96.74
11053;BME280;55230;42.602;23.470;2023-03-26T00:03:38;93027.81;;;8.90;96.63
11053;BME280;55230;42.602;23.470;2023-03-26T00:06:07;92982.19;;;8.42;96.04
11053;BME280;55230;42.602;23.470;2023-03-26T00:08:36;93002.81;;;8.63;96.35
11053;BME280;55230;42.602;23.470;2023-03-26T00:11:05;92921.63;;;8.10;96.64
11053;BME280;55230;42.602;23.470;2023-03-26T00:13:32;93030.91;;;8.71;96.30
11053;BME280;55230;42.602;23.470;2023-03-26T00:16:00;93020.16;;;8.71;95.81
11053;BME280;55230;42.602;23.470;2023-03-26T00:18:29;93030.88;;;8.62;96.22
11053;BME280;55230;42.602;23.470;2023-03-26T00:21:01;93041.19;;;8.63;96.70
11053;BME280;55230;42.602;23.470;2023-03-26T00:23:29;93040.13;;;8.70;97.23
11053;BME280;55230;42.602;23.470;2023-03-26T00:25:56;93028.19;;;8.62;97.01
11053;BME280;55230;42.602;23.470;2023-03-26T00:28:23;92890.53;;;7.73;96.81
11053;BME280;55230;42.602;23.470;2023-03-26T00:30:57;93009.97;;;8.57;97.29
11053;BME280;55230;42.602;23.470;2023-03-26T00:33:24;93017.41;;;8.53;97.68
11053;BME280;55230;42.602;23.470;2023-03-26T00:35:53;93007.66;;;8.37;97.76
11053;BME280;55230;42.602;23.470;2023-03-26T00:38:21;93013.78;;;8.38;98.51
11053;BME280;55230;42.602;23.470;2023-03-26T00:40:48;92938.75;;;7.94;98.78
11053;BME280;55230;42.602;23.470;2023-03-26T00:43:15;93003.66;;;8.42;98.80
11053;BME280;55230;42.602;23.470;2023-03-26T00:45:45;92995.31;;;8.40;98.52
11053;BME280;55230;42.602;23.470;2023-03-26T00:48:12;92985.59;;;8.33;98.88
11053;BME280;55230;42.602;23.470;2023-03-26T00:50:39;92984.09;;;8.32;98.78
11053;BME280;55230;42.602;23.470;2023-03-26T00:53:09;92821.63;;;7.12;98.39
11053;BME280;55230;42.602;23.470;2023-03-26T00:55:38;93004.84;;;8.32;98.63
11053;BME280;55230;42.602;23.470;2023-03-26T00:58:05;92665.22;;;6.18;98.17
11053;BME280;55230;42.602;23.470;2023-03-26T01:00:50;92994.38;;;8.34;98.91
11053;BME280;55230;42.602;23.470;2023-03-26T01:03:22;92993.47;;;8.28;98.94
11053;BME280;55230;42.602;23.470;2023-03-26T01:05:51;92995.59;;;8.33;98.54
11053;BME280;55230;42.602;23.470;2023-03-26T01:08:26;92880.13;;;7.44;98.12
11053;BME280;55230;42.602;23.470;2023-03-26T01:10:54;92876.81;;;7.31;98.56
11053;BME280;55230;42.602;23.470;2023-03-26T01:13:29;92992.28;;;8.29;98.25
11053;BME280;55230;42.602;23.470;2023-03-26T01:15:58;92899.31;;;7.64;97.13
11053;BME280;55230;42.602;23.470;2023-03-26T01:18:28;92995.34;;;8.18;97.32
11053;BME280;55230;42.602;23.470;2023-03-26T01:20:59;93006.84;;;8.18;97.93
11053;BME280;55230;42.602;23.470;2023-03-26T01:23:37;93012.09;;;8.22;98.09
11053;BME280;55230;42.602;23.470;2023-03-26T01:26:11;93079.75;;;8.30;97.66
11053;BME280;55230;42.602;23.470;2023-03-26T01:28:42;93014.22;;;8.27;97.17
11053;BME280;55230;42.602;23.470;2023-03-26T01:31:14;93024.47;;;8.19;97.70
11053;BME280;55230;42.602;23.470;2023-03-26T01:33:48;93022.97;;;8.18;97.11
11053;BME280;55230;42.602;23.470;2023-03-26T01:36:24;93029.53;;;8.17;97.01
11053;BME280;55230;42.602;23.470;2023-03-26T01:38:58;93030.81;;;8.04;96.28
11053;BME280;55230;42.602;23.470;2023-03-26T01:41:32;92989.72;;;7.85;96.25
11053;BME280;55230;42.602;23.470;2023-03-26T01:44:06;92828.69;;;6.45;95.91
11053;BME280;55230;42.602;23.470;2023-03-26T01:46:36;92986.91;;;7.89;96.18
11053;BME280;55230;42.602;23.470;2023-03-26T01:49:05;93037.34;;;8.25;96.64
11053;BME280;55230;42.602;23.470;2023-03-26T01:51:38;93048.91;;;8.21;96.91
11053;BME280;55230;42.602;23.470;2023-03-26T01:54:07;93055.81;;;8.23;97.07
11053;BME280;55230;42.602;23.470;2023-03-26T01:56:46;93027.56;;;8.09;97.49
11053;BME280;55230;42.602;23.470;2023-03-26T01:59:28;93049.13;;;8.27;98.01
11053;BME280;55230;42.602;23.470;2023-03-26T02:02:06;93041.25;;;8.33;98.12
11053;BME280;55230;42.602;23.470;2023-03-26T02:04:41;92552.19;;;4.75;98.42
11053;BME280;55230;42.602;23.470;2023-03-26T02:07:14;93037.34;;;8.25;99.22
11053;BME280;55230;42.602;23.470;2023-03-26T02:09:49;93022.63;;;8.07;99.36
11053;BME280;55230;42.602;23.470;2023-03-26T02:12:18;92996.31;;;7.93;99.55
11053;BME280;55230;42.602;23.470;2023-03-26T02:14:47;93002.69;;;7.87;100.00
11053;BME280;55230;42.602;23.470;2023-03-26T02:17:14;92656.56;;;5.49;100.00
11053;BME280;55230;42.602;23.470;2023-03-26T02:19:41;93041.81;;;7.97;100.00
11053;BME280;55230;42.602;23.470;2023-03-26T02:22:08;93045.25;;;7.97;100.00
11053;BME280;55230;42.602;23.470;2023-03-26T02:24:36;93042.28;;;7.95;100.00
11053;BME280;55230;42.602;23.470;2023-03-26T02:27:03;93040.44;;;7.92;100.00
11053;BME280;55230;42.602;23.470;2023-03-26T02:29:34;93038.22;;;7.91;100.00
11053;BME280;55230;42.602;23.470;2023-03-26T02:32:02;92955.28;;;7.23;100.00
11053;BME280;55230;42.602;23.470;2023-03-26T02:34:30;92727.28;;;5.69;100.00
11053;BME280;55230;42.602;23.470;2023-03-26T02:36:57;92889.72;;;6.93;100.00
11053;BME280;55230;42.602;23.470;2023-03-26T02:39:24;93030.59;;;7.89;100.00
11053;BME280;55230;42.602;23.470;2023-03-26T02:41:51;93032.38;;;7.83;100.00
11053;BME280;55230;42.602;23.470;2023-03-26T02:44:17;93032.06;;;7.81;100.00
11053;BME280;55230;42.602;23.470;2023-03-26T02:46:46;93033.81;;;7.75;100.00
11053;BME280;55230;42.602;23.470;2023-03-26T02:49:12;93027.84;;;7.71;100.00
11053;BME280;55230;42.602;23.470;2023-03-26T02:51:39;92999.72;;;7.33;100.00
11053;BME280;55230;42.602;23.470;2023-03-26T02:54:06;93032.25;;;7.65;100.00
11053;BME280;55230;42.602;23.470;2023-03-26T02:56:33;93030.47;;;7.62;100.00
11053;BME280;55230;42.602;23.470;2023-03-26T02:58:59;93033.28;;;7.59;100.00
11053;BME280;55230;42.602;23.470;2023-03-26T03:01:26;93047.97;;;7.54;100.00
11053;BME280;55230;42.602;23.470;2023-03-26T03:03:56;92877.13;;;6.38;100.00
11053;BME280;55230;42.602;23.470;2023-03-26T03:06:23;93052.56;;;7.45;100.00
11053;BME280;55230;42.602;23.470;2023-03-26T03:08:50;93036.72;;;7.16;100.00
11053;BME280;55230;42.602;23.470;2023-03-26T03:11:18;93062.28;;;7.51;100.00
11053;BME280;55230;42.602;23.470;2023-03-26T03:13:49;93056.34;;;7.56;100.00
11053;BME280;55230;42.602;23.470;2023-03-26T03:16:16;93029.59;;;7.22;100.00
11053;BME280;55230;42.602;23.470;2023-03-26T03:18:43;92874.38;;;6.29;100.00
11053;BME280;55230;42.602;23.470;2023-03-26T03:21:12;92728.06;;;5.23;100.00
11053;BME280;55230;42.602;23.470;2023-03-26T03:23:38;92952.63;;;6.67;100.00
11053;BME280;55230;42.602;23.470;2023-03-26T03:26:11;93001.88;;;6.82;100.00
11053;BME280;55230;42.602;23.470;2023-03-26T03:28:38;93079.41;;;7.32;100.00
11053;BME280;55230;42.602;23.470;2023-03-26T03:31:05;93026.81;;;6.91;100.00
11053;BME280;55230;42.602;23.470;2023-03-26T03:33:33;93077.53;;;7.20;100.00
11053;BME280;55230;42.602;23.470;2023-03-26T03:36:00;93095.19;;;7.30;100.00
11053;BME280;55230;42.602;23.470;2023-03-26T03:38:36;92804.78;;;5.35;100.00
11053;BME280;55230;42.602;23.470;2023-03-26T03:41:03;93091.66;;;7.33;100.00
11053;BME280;55230;42.602;23.470;2023-03-26T03:43:30;92984.78;;;6.67;100.00
11053;BME280;55230;42.602;23.470;2023-03-26T03:45:57;92998.06;;;6.70;100.00
11053;BME280;55230;42.602;23.470;2023-03-26T03:48:24;93034.81;;;7.04;100.00
11053;BME280;55230;42.602;23.470;2023-03-26T03:50:52;92917.34;;;6.13;100.00
11053;BME280;55230;42.602;23.470;2023-03-26T03:53:19;93080.94;;;7.33;100.00
11053;BME280;55230;42.602;23.470;2023-03-26T03:55:47;93083.91;;;7.35;100.00
11053;BME280;55230;42.602;23.470;2023-03-26T03:58:17;93036.88;;;7.00;100.00
11053;BME280;55230;42.602;23.470;2023-03-26T04:00:46;92949.97;;;6.33;100.00
11053;BME280;55230;42.602;23.470;2023-03-26T04:03:14;93046.63;;;6.94;100.00
11053;BME280;55230;42.602;23.470;2023-03-26T04:05:41;93091.94;;;7.35;100.00
11053;BME280;55230;42.602;23.470;2023-03-26T04:08:08;93089.72;;;7.34;100.00
11053;BME280;55230;42.602;23.470;2023-03-26T04:10:34;93101.63;;;7.33;100.00
11053;BME280;55230;42.602;23.470;2023-03-26T04:13:03;93098.19;;;7.32;100.00
11053;BME280;55230;42.602;23.470;2023-03-26T04:15:29;92574.19;;;3.70;100.00
11053;BME280;55230;42.602;23.470;2023-03-26T04:17:56;93109.00;;;7.41;100.00
11053;BME280;55230;42.602;23.470;2023-03-26T04:20:23;92807.69;;;4.91;100.00
11053;BME280;55230;42.602;23.470;2023-03-26T04:22:49;93116.81;;;7.48;100.00
11053;BME280;55230;42.602;23.470;2023-03-26T04:25:17;93153.03;;;7.31;100.00
11053;BME280;55230;42.602;23.470;2023-03-26T04:27:44;93059.47;;;6.99;100.00
11053;BME280;55230;42.602;23.470;2023-03-26T04:30:15;93137.50;;;7.48;100.00
11053;BME280;55230;42.602;23.470;2023-03-26T04:32:45;93130.94;;;7.27;100.00
11053;BME280;55230;42.602;23.470;2023-03-26T04:35:14;92979.75;;;6.35;100.00
11053;BME280;55230;42.602;23.470;2023-03-26T04:37:42;93145.34;;;7.42;100.00
11053;BME280;55230;42.602;23.470;2023-03-26T04:40:13;92963.50;;;6.04;100.00
11053;BME280;55230;42.602;23.470;2023-03-26T04:42:40;93090.84;;;6.77;100.00
11053;BME280;55230;42.602;23.470;2023-03-26T04:45:11;93110.19;;;7.06;100.00
11053;BME280;55230;42.602;23.470;2023-03-26T04:47:39;93159.97;;;7.41;100.00
11053;BME280;55230;42.602;23.470;2023-03-26T04:50:08;93075.41;;;6.81;100.00
11053;BME280;55230;42.602;23.470;2023-03-26T04:52:36;93151.34;;;7.12;100.00
11053;BME280;55230;42.602;23.470;2023-03-26T04:55:04;93165.97;;;7.45;100.00
11053;BME280;55230;42.602;23.470;2023-03-26T04:57:35;92818.31;;;4.40;100.00
11053;BME280;55230;42.602;23.470;2023-03-26T05:00:06;93166.13;;;7.51;100.00
11053;BME280;55230;42.602;23.470;2023-03-26T05:02:40;93026.72;;;6.48;100.00
11053;BME280;55230;42.602;23.470;2023-03-26T05:05:08;93101.50;;;6.43;100.00
11053;BME280;55230;42.602;23.470;2023-03-26T05:07:35;93124.09;;;7.14;100.00
11053;BME280;55230;42.602;23.470;2023-03-26T05:10:03;93172.03;;;7.58;100.00
11053;BME280;55230;42.602;23.470;2023-03-26T05:12:30;93182.19;;;7.63;100.00
11053;BME280;55230;42.602;23.470;2023-03-26T05:14:57;93178.63;;;7.66;100.00
11053;BME280;55230;42.602;23.470;2023-03-26T05:17:23;93099.91;;;7.04;100.00
11053;BME280;55230;42.602;23.470;2023-03-26T05:19:52;93136.50;;;7.33;100.00
11053;BME280;55230;42.602;23.470;2023-03-26T05:22:18;93126.00;;;7.26;100.00
11053;BME280;55230;42.602;23.470;2023-03-26T05:24:45;93199.03;;;7.76;100.00
11053;BME280;55230;42.602;23.470;2023-03-26T05:27:13;93175.34;;;7.62;100.00
11053;BME280;55230;42.602;23.470;2023-03-26T05:29:41;93200.66;;;7.61;100.00
11053;BME280;55230;42.602;23.470;2023-03-26T05:32:08;93180.19;;;7.55;100.00
11053;BME280;55230;42.602;23.470;2023-03-26T05:34:34;93223.41;;;7.69;99.87
11053;BME280;55230;42.602;23.470;2023-03-26T05:37:03;93169.16;;;7.53;99.62
11053;BME280;55230;42.602;23.470;2023-03-26T05:39:31;93095.28;;;7.05;98.48
11053;BME280;55230;42.602;23.470;2023-03-26T05:41:58;92935.47;;;5.58;97.61
11053;BME280;55230;42.602;23.470;2023-03-26T05:44:25;93166.97;;;7.60;98.37
11053;BME280;55230;42.602;23.470;2023-03-26T05:46:51;93047.09;;;6.80;98.03
11053;BME280;55230;42.602;23.470;2023-03-26T05:49:18;93216.44;;;7.93;98.07
11053;BME280;55230;42.602;23.470;2023-03-26T05:51:45;93137.25;;;7.33;98.44
11053;BME280;55230;42.602;23.470;2023-03-26T05:54:13;93246.34;;;7.83;98.85
11053;BME280;55230;42.602;23.470;2023-03-26T05:56:40;93221.66;;;7.75;99.92
11053;BME280;55230;42.602;23.470;2023-03-26T05:59:07;93224.03;;;7.73;100.00
11053;BME280;55230;42.602;23.470;2023-03-26T06:01:33;93225.09;;;7.76;99.86
11053;BME280;55230;42.602;23.470;2023-03-26T06:04:00;93215.81;;;7.89;100.00
11053;BME280;55230;42.602;23.470;2023-03-26T06:06:27;93143.66;;;7.36;99.71
11053;BME280;55230;42.602;23.470;2023-03-26T06:08:53;93158.81;;;7.85;99.17
11053;BME280;55230;42.602;23.470;2023-03-26T06:11:22;93069.81;;;7.65;97.14
11053;BME280;55230;42.602;23.470;2023-03-26T06:13:48;93202.66;;;8.78;95.18
11053;BME280;55230;42.602;23.470;2023-03-26T06:16:15;93214.34;;;8.93;93.53
11053;BME280;55230;42.602;23.470;2023-03-26T06:18:42;93213.84;;;9.25;93.01
11053;BME280;55230;42.602;23.470;2023-03-26T06:21:10;93224.03;;;9.21;91.99
11053;BME280;55230;42.602;23.470;2023-03-26T06:23:37;93223.75;;;9.28;90.88
11053;BME280;55230;42.602;23.470;2023-03-26T06:26:04;93118.94;;;8.58;90.22
11053;BME280;55230;42.602;23.470;2023-03-26T06:28:32;92660.63;;;5.53;90.14
11053;BME280;55230;42.602;23.470;2023-03-26T06:30:59;93182.13;;;9.02;89.18
11053;BME280;55230;42.602;23.470;2023-03-26T06:33:27;93215.88;;;9.03;88.61
11053;BME280;55230;42.602;23.470;2023-03-26T06:35:53;93218.81;;;9.35;88.75
11053;BME280;55230;42.602;23.470;2023-03-26T06:38:20;93237.59;;;9.66;85.15
11053;BME280;55230;42.602;23.470;2023-03-26T06:40:47;93183.13;;;9.35;82.58
11053;BME280;55230;42.602;23.470;2023-03-26T06:43:14;93236.84;;;9.84;82.43
11053;BME280;55230;42.602;23.470;2023-03-26T06:45:42;93155.56;;;9.22;83.21
11053;BME280;55230;42.602;23.470;2023-03-26T06:48:09;93181.25;;;9.14;83.96
11053;BME280;55230;42.602;23.470;2023-03-26T06:50:35;93239.81;;;9.59;83.87
11053;BME280;55230;42.602;23.470;2023-03-26T06:53:02;93231.31;;;9.69;84.78
11053;BME280;55230;42.602;23.470;2023-03-26T06:55:29;93018.66;;;8.21;83.46
11053;BME280;55230;42.602;23.470;2023-03-26T06:57:56;92817.81;;;6.91;83.67
11053;BME280;55230;42.602;23.470;2023-03-26T07:00:23;93251.19;;;9.63;83.55
11053;BME280;55230;42.602;23.470;2023-03-26T07:02:51;93108.88;;;8.89;83.00
11053;BME280;55230;42.602;23.470;2023-03-26T07:05:18;93197.16;;;9.30;83.23
11053;BME280;55230;42.602;23.470;2023-03-26T07:07:46;93180.41;;;9.44;84.70
11053;BME280;55230;42.602;23.470;2023-03-26T07:10:13;93009.94;;;8.39;82.44
11053;BME280;55230;42.602;23.470;2023-03-26T07:12:40;93247.63;;;10.02;81.65
11053;BME280;55230;42.602;23.470;2023-03-26T07:15:07;93133.47;;;9.27;78.68
11053;BME280;55230;42.602;23.470;2023-03-26T07:17:34;92913.66;;;7.40;81.61
11053;BME280;55230;42.602;23.470;2023-03-26T07:20:03;93241.78;;;9.94;80.66
11053;BME280;55230;42.602;23.470;2023-03-26T07:22:31;93133.06;;;8.89;77.59
11053;BME280;55230;42.602;23.470;2023-03-26T07:24:58;93155.19;;;9.87;76.55
11053;BME280;55230;42.602;23.470;2023-03-26T07:27:35;93257.38;;;10.44;76.41
11053;BME280;55230;42.602;23.470;2023-03-26T07:30:05;93142.44;;;9.96;77.91
11053;BME280;55230;42.602;23.470;2023-03-26T07:32:40;93229.09;;;10.91;76.14
11053;BME280;55230;42.602;23.470;2023-03-26T07:35:18;93134.53;;;10.11;73.38
11053;BME280;55230;42.602;23.470;2023-03-26T07:37:51;93072.16;;;9.76;70.73
11053;BME280;55230;42.602;23.470;2023-03-26T07:40:40;93222.94;;;10.48;72.41
11053;BME280;55230;42.602;23.470;2023-03-26T07:43:18;92923.03;;;8.24;71.13
11053;BME280;55230;42.602;23.470;2023-03-26T07:45:48;93150.50;;;10.32;71.71
11053;BME280;55230;42.602;23.470;2023-03-26T07:48:17;93217.63;;;11.23;71.27
11053;BME280;55230;42.602;23.470;2023-03-26T07:50:46;93225.84;;;10.87;65.22
11053;BME280;55230;42.602;23.470;2023-03-26T07:53:14;93242.34;;;10.89;67.12
11053;BME280;55230;42.602;23.470;2023-03-26T07:55:48;93133.00;;;10.19;67.36
11053;BME280;55230;42.602;23.470;2023-03-26T07:58:34;93221.41;;;10.66;64.67
11053;BME280;55230;42.602;23.470;2023-03-26T08:01:05;93233.00;;;10.99;60.63
11053;BME280;55230;42.602;23.470;2023-03-26T08:06:33;93247.66;;;11.72;60.34
11053;BME280;55230;42.602;23.470;2023-03-26T08:09:07;93217.66;;;11.70;56.49
11053;BME280;55230;42.602;23.470;2023-03-26T08:11:46;93202.91;;;11.80;54.96
11053;BME280;55230;42.602;23.470;2023-03-26T08:14:26;93209.16;;;11.86;55.91
11053;BME280;55230;42.602;23.470;2023-03-26T08:17:00;93216.97;;;11.84;55.71
11053;BME280;55230;42.602;23.470;2023-03-26T08:19:39;93145.50;;;11.47;57.04
11053;BME280;55230;42.602;23.470;2023-03-26T08:22:15;92645.28;;;7.88;49.74
11053;BME280;55230;42.602;23.470;2023-03-26T08:24:54;93155.38;;;11.50;51.78
11053;BME280;55230;42.602;23.470;2023-03-26T08:27:29;92913.28;;;9.44;55.58
11053;BME280;55230;42.602;23.470;2023-03-26T08:30:06;93187.59;;;11.53;52.59
11053;BME280;55230;42.602;23.470;2023-03-26T08:32:34;93201.56;;;11.99;54.85
11053;BME280;55230;42.602;23.470;2023-03-26T08:35:00;93224.84;;;11.97;51.94
11053;BME280;55230;42.602;23.470;2023-03-26T08:37:30;93092.50;;;10.79;53.82
11053;BME280;55230;42.602;23.470;2023-03-26T08:39:56;93220.31;;;11.79;52.81
11053;BME280;55230;42.602;23.470;2023-03-26T08:42:50;93219.22;;;11.86;50.96
11053;BME280;55230;42.602;23.470;2023-03-26T08:45:48;93164.22;;;11.74;51.29
11053;BME280;55230;42.602;23.470;2023-03-26T09:00:46;93148.88;;;12.47;47.33
11053;BME280;55230;42.602;23.470;2023-03-26T09:03:57;93203.88;;;12.88;50.72
11053;BME280;55230;42.602;23.470;2023-03-26T09:06:45;92777.25;;;9.43;49.15
11053;BME280;55230;42.602;23.470;2023-03-26T09:09:53;93144.94;;;12.19;50.72
11053;BME280;55230;42.602;23.470;2023-03-26T09:12:48;93221.06;;;13.14;46.53
11053;BME280;55230;42.602;23.470;2023-03-26T09:15:31;93220.88;;;12.89;45.01
11053;BME280;55230;42.602;23.470;2023-03-26T09:21:25;93146.50;;;12.84;44.01
11053;BME280;55230;42.602;23.470;2023-03-26T09:27:07;93213.03;;;12.91;44.71
11053;BME280;55230;42.602;23.470;2023-03-26T09:30:03;93204.44;;;13.21;44.77
11053;BME280;55230;42.602;23.470;2023-03-26T09:33:02;93196.19;;;13.30;45.37
11053;BME280;55230;42.602;23.470;2023-03-26T09:38:43;93197.06;;;12.78;46.46
11053;BME280;55230;42.602;23.470;2023-03-26T09:41:15;93168.59;;;12.82;45.69
11053;BME280;55230;42.602;23.470;2023-03-26T09:47:00;93205.38;;;13.04;45.99
11053;BME280;55230;42.602;23.470;2023-03-26T09:49:39;93103.94;;;12.35;44.57
11053;BME280;55230;42.602;23.470;2023-03-26T09:52:41;93158.53;;;12.83;45.18
11053;BME280;55230;42.602;23.470;2023-03-26T09:55:28;93190.91;;;13.76;44.34
11053;BME280;55230;42.602;23.470;2023-03-26T09:58:10;92855.38;;;11.77;44.23
11053;BME280;55230;42.602;23.470;2023-03-26T10:00:43;92961.31;;;12.30;41.97
11053;BME280;55230;42.602;23.470;2023-03-26T10:03:28;93126.69;;;13.82;41.50
11053;BME280;55230;42.602;23.470;2023-03-26T10:06:07;93145.84;;;14.24;41.89
11053;BME280;55230;42.602;23.470;2023-03-26T10:08:51;93053.72;;;13.58;39.12
11053;BME280;55230;42.602;23.470;2023-03-26T10:11:25;93163.25;;;14.32;38.65
11053;BME280;55230;42.602;23.470;2023-03-26T10:14:03;93156.06;;;14.09;39.76
11053;BME280;55230;42.602;23.470;2023-03-26T10:16:43;92959.53;;;12.27;39.47
11053;BME280;55230;42.602;23.470;2023-03-26T10:19:43;93157.38;;;13.19;42.10
11053;BME280;55230;42.602;23.470;2023-03-26T10:22:25;93094.97;;;13.28;42.42
11053;BME280;55230;42.602;23.470;2023-03-26T10:27:52;93136.56;;;14.31;42.14
11053;BME280;55230;42.602;23.470;2023-03-26T10:30:31;93129.81;;;14.46;41.41
11053;BME280;55230;42.602;23.470;2023-03-26T10:33:12;93129.22;;;13.91;40.93
11053;BME280;55230;42.602;23.470;2023-03-26T10:35:48;93066.56;;;13.18;41.95
11053;BME280;55230;42.602;23.470;2023-03-26T10:38:24;93121.25;;;13.82;41.09
11053;BME280;55230;42.602;23.470;2023-03-26T10:41:04;92778.72;;;11.40;42.52
11053;BME280;55230;42.602;23.470;2023-03-26T10:43:54;93108.78;;;13.90;41.30
11053;BME280;55230;42.602;23.470;2023-03-26T10:46:35;93104.13;;;13.70;41.12
11053;BME280;55230;42.602;23.470;2023-03-26T10:49:32;93112.25;;;14.16;39.04
11053;BME280;55230;42.602;23.470;2023-03-26T10:52:08;93111.84;;;14.23;37.66
11053;BME280;55230;42.602;23.470;2023-03-26T10:54:49;93113.88;;;14.28;38.51
11053;BME280;55230;42.602;23.470;2023-03-26T10:57:34;93103.97;;;14.51;38.67
11053;BME280;55230;42.602;23.470;2023-03-26T11:00:13;93127.78;;;14.41;39.06
11053;BME280;55230;42.602;23.470;2023-03-26T11:02:45;93108.72;;;14.30;38.85
11053;BME280;55230;42.602;23.470;2023-03-26T11:05:25;92994.69;;;13.62;38.76
11053;BME280;55230;42.602;23.470;2023-03-26T11:08:00;93055.69;;;14.29;41.33
11053;BME280;55230;42.602;23.470;2023-03-26T11:10:38;93027.41;;;14.10;38.74
11053;BME280;55230;42.602;23.470;2023-03-26T11:13:14;93075.88;;;14.54;39.93
11053;BME280;55230;42.602;23.470;2023-03-26T11:15:45;93091.22;;;14.31;38.75
11053;BME280;55230;42.602;23.470;2023-03-26T11:18:17;93071.38;;;14.20;38.12
11053;BME280;55230;42.602;23.470;2023-03-26T11:20:51;93029.16;;;14.13;37.41
11053;BME280;55230;42.602;23.470;2023-03-26T11:23:29;93046.63;;;14.12;38.32
11053;BME280;55230;42.602;23.470;2023-03-26T11:26:04;93071.25;;;14.65;40.83
11053;BME280;55230;42.602;23.470;2023-03-26T11:31:38;93063.16;;;15.07;37.45
11053;BME280;55230;42.602;23.470;2023-03-26T11:34:12;93024.81;;;14.52;36.10
11053;BME280;55230;42.602;23.470;2023-03-26T11:36:44;92954.72;;;13.83;38.15
11053;BME280;55230;42.602;23.470;2023-03-26T11:39:19;93133.50;;;14.74;36.91
11053;BME280;55230;42.602;23.470;2023-03-26T11:41:51;93067.34;;;14.66;37.00
11053;BME280;55230;42.602;23.470;2023-03-26T11:44:24;93070.50;;;14.28;37.29
11053;BME280;55230;42.602;23.470;2023-03-26T11:46:56;92955.16;;;13.76;36.06
11053;BME280;55230;42.602;23.470;2023-03-26T11:49:26;93010.59;;;14.32;35.16
11053;BME280;55230;42.602;23.470;2023-03-26T11:51:54;93011.75;;;14.98;35.12
11053;BME280;55230;42.602;23.470;2023-03-26T11:54:22;93041.72;;;15.10;34.96
11053;BME280;55230;42.602;23.470;2023-03-26T11:56:51;92496.94;;;11.32;32.55
11053;BME280;55230;42.602;23.470;2023-03-26T11:59:22;93023.09;;;14.55;34.42
11053;BME280;55230;42.602;23.470;2023-03-26T12:01:51;93006.59;;;14.58;33.13
11053;BME280;55230;42.602;23.470;2023-03-26T12:04:25;93006.75;;;14.80;34.81
11053;BME280;55230;42.602;23.470;2023-03-26T12:06:54;92668.50;;;12.75;33.91
11053;BME280;55230;42.602;23.470;2023-03-26T12:09:23;92985.25;;;14.77;34.75
11053;BME280;55230;42.602;23.470;2023-03-26T12:11:53;92929.66;;;14.25;34.03
11053;BME280;55230;42.602;23.470;2023-03-26T12:14:25;92979.00;;;14.65;34.51
11053;BME280;55230;42.602;23.470;2023-03-26T12:16:59;92968.28;;;14.45;34.87
11053;BME280;55230;42.602;23.470;2023-03-26T12:19:34;92950.28;;;14.42;32.64
11053;BME280;55230;42.602;23.470;2023-03-26T12:22:02;92841.66;;;13.52;34.66
11053;BME280;55230;42.602;23.470;2023-03-26T12:24:31;92979.91;;;14.93;33.90
11053;BME280;55230;42.602;23.470;2023-03-26T12:27:00;92949.34;;;15.04;33.50
11053;BME280;55230;42.602;23.470;2023-03-26T12:29:28;92977.28;;;15.16;30.87
11053;BME280;55230;42.602;23.470;2023-03-26T12:32:04;92957.31;;;15.24;31.22
11053;BME280;55230;42.602;23.470;2023-03-26T12:34:33;92969.69;;;15.31;31.87
11053;BME280;55230;42.602;23.470;2023-03-26T12:37:01;92932.69;;;14.74;32.67
11053;BME280;55230;42.602;23.470;2023-03-26T12:39:35;92991.13;;;15.18;32.15
11053;BME280;55230;42.602;23.470;2023-03-26T12:42:04;92797.84;;;13.96;31.34
11053;BME280;55230;42.602;23.470;2023-03-26T12:44:34;92905.25;;;14.67;30.46
11053;BME280;55230;42.602;23.470;2023-03-26T12:47:16;92947.38;;;15.04;30.92
11053;BME280;55230;42.602;23.470;2023-03-26T12:49:45;92922.09;;;14.76;31.17
11053;BME280;55230;42.602;23.470;2023-03-26T12:52:34;92954.50;;;14.96;30.36
11053;BME280;55230;42.602;23.470;2023-03-26T12:55:15;92945.31;;;14.83;30.41
11053;BME280;55230;42.602;23.470;2023-03-26T12:57:51;92856.09;;;14.48;31.48
11053;BME280;55230;42.602;23.470;2023-03-26T13:00:43;92930.66;;;15.28;30.69
11053;BME280;55230;42.602;23.470;2023-03-26T13:03:40;92932.97;;;15.41;29.83
11053;BME280;55230;42.602;23.470;2023-03-26T13:06:21;92927.41;;;15.19;30.03
11053;BME280;55230;42.602;23.470;2023-03-26T13:09:10;92910.41;;;15.18;31.09
11053;BME280;55230;42.602;23.470;2023-03-26T13:11:50;92878.94;;;14.89;29.89
11053;BME280;55230;42.602;23.470;2023-03-26T13:14:30;92879.69;;;14.90;26.86
11053;BME280;55230;42.602;23.470;2023-03-26T13:17:02;92843.91;;;14.80;26.23
11053;BME280;55230;42.602;23.470;2023-03-26T13:19:35;92880.00;;;15.08;27.73
11053;BME280;55230;42.602;23.470;2023-03-26T13:22:16;92908.19;;;15.28;26.80
11053;BME280;55230;42.602;23.470;2023-03-26T13:24:52;92772.75;;;14.54;27.54
11053;BME280;55230;42.602;23.470;2023-03-26T13:27:34;92889.88;;;15.12;27.00
11053;BME280;55230;42.602;23.470;2023-03-26T13:30:09;92898.13;;;15.50;28.19
11053;BME280;55230;42.602;23.470;2023-03-26T13:32:47;92895.19;;;15.54;27.58
11053;BME280;55230;42.602;23.470;2023-03-26T13:35:21;92908.03;;;15.48;28.42
11053;BME280;55230;42.602;23.470;2023-03-26T13:37:55;92819.69;;;14.71;28.92
11053;BME280;55230;42.602;23.470;2023-03-26T13:40:27;92865.44;;;15.06;27.74
11053;BME280;55230;42.602;23.470;2023-03-26T13:43:09;92941.34;;;15.48;27.44
11053;BME280;55230;42.602;23.470;2023-03-26T13:45:53;92877.81;;;15.18;25.47
11053;BME280;55230;42.602;23.470;2023-03-26T13:48:24;92906.19;;;15.23;24.03
11053;BME280;55230;42.602;23.470;2023-03-26T13:50:58;92829.13;;;14.92;26.49
11053;BME280;55230;42.602;23.470;2023-03-26T13:53:32;92863.50;;;15.23;25.76